Time;durP1;ratioP1;P1;durP2;ratioP2;P2;SDS_P1;SDS_P2;PMS_P1;PMS_P2;Temp;Humidity;BMP_temperature;BMP_pressure;BME280_temperature;BME280_humidity;BME280_pressure;Samples;Min_cycle;Max_cycle;Signal;HPM_P1;HPM_P2
2022/01/20 00:00:14;;;;;;;;;;;2.30;99.90;;;;;;5091388;28;20054;-46
2022/01/20 00:02:45;;;;;;;20.17;1.20;;;2.30;99.90;;;;;;5109582;28;20293;-48
2022/01/20 00:05:47;;;;;;;20.60;1.70;;;2.20;99.90;;;;;;5109404;28;20072;-47
2022/01/20 00:08:20;;;;;;;14.25;1.25;;;2.20;99.90;;;;;;5108986;28;20255;-47
2022/01/20 00:27:16;;;;;;;13.65;1.05;;;2.50;99.90;;;;;;5077189;28;20079;-46
2022/01/20 00:32:26;;;;;;;11.80;2.15;;;3.80;99.90;;;;;;5107982;28;20052;-46
2022/01/20 00:37:27;;;;;;;12.02;1.05;;;2.60;99.90;;;;;;5109353;28;20280;-46
2022/01/20 00:39:54;;;;;;;13.40;1.30;;;2.50;99.90;;;;;;5108755;28;20039;-47
2022/01/20 00:42:21;;;;;;;13.60;1.83;;;2.50;99.90;;;;;;5109328;28;20459;-48
2022/01/20 00:44:47;;;;;;;12.27;0.98;;;2.50;99.90;;;;;;5090225;28;20047;-48
2022/01/20 00:47:14;;;;;;;14.10;1.55;;;2.40;99.90;;;;;;5090532;28;20042;-47
2022/01/20 00:49:40;;;;;;;24.40;1.83;;;2.40;99.90;;;;;;5090724;28;20036;-48
2022/01/20 00:52:06;;;;;;;15.30;1.30;;;2.40;99.90;;;;;;5108805;28;20568;-46
2022/01/20 00:54:33;;;;;;;17.13;2.13;;;2.30;99.90;;;;;;5109031;28;20075;-48
2022/01/20 00:56:59;;;;;;;18.50;1.67;;;2.30;99.90;;;;;;5108940;28;20050;-46
2022/01/20 00:59:27;;;;;;;16.55;1.05;;;2.30;99.90;;;;;;5109199;28;20405;-47
2022/01/20 01:01:53;;;;;;;13.55;1.20;;;2.30;99.90;;;;;;5108980;28;20047;-47
2022/01/20 01:04:19;;;;;;;14.50;1.08;;;2.30;99.90;;;;;;5107278;28;20047;-49
2022/01/20 01:09:29;;;;;;;15.55;1.10;;;2.40;99.90;;;;;;5108854;28;20104;-47
2022/01/20 01:12:01;;;;;;;15.95;1.70;;;2.50;99.90;;;;;;5108836;28;20035;-50
2022/01/20 01:14:29;;;;;;;22.25;1.63;;;2.60;99.90;;;;;;5108953;28;20062;-50
2022/01/20 01:24:43;;;;;;;19.08;1.13;;;2.80;99.90;;;;;;5108803;28;20043;-47
2022/01/20 01:27:11;;;;;;;18.55;2.33;;;2.90;99.90;;;;;;5108372;28;20071;-48
2022/01/20 01:32:29;;;;;;;14.98;1.17;;;3.00;99.90;;;;;;5108402;28;20044;-47
2022/01/20 01:34:55;;;;;;;21.67;2.30;;;3.00;99.90;;;;;;5090464;28;20130;-50
2022/01/20 01:40:00;;;;;;;20.15;1.25;;;3.10;99.90;;;;;;5091635;28;20048;-47
2022/01/20 01:42:33;;;;;;;22.88;1.17;;;3.10;99.90;;;;;;5073666;28;20060;-46
2022/01/20 01:45:11;;;;;;;11.43;1.70;;;3.10;99.90;;;;;;5091787;28;20044;-47
2022/01/20 01:47:37;;;;;;;14.82;0.93;;;3.00;99.90;;;;;;5074233;28;20050;-48
2022/01/20 01:50:04;;;;;;;10.38;1.02;;;2.90;99.90;;;;;;5092520;28;20444;-46
2022/01/20 01:52:29;;;;;;;13.05;1.48;;;2.80;99.90;;;;;;5093013;28;20398;-47
2022/01/20 01:54:56;;;;;;;10.60;1.13;;;2.80;99.90;;;;;;5093433;28;20044;-47
2022/01/20 01:57:24;;;;;;;7.97;0.70;;;2.60;99.90;;;;;;5093195;28;20044;-47
2022/01/20 01:59:51;;;;;;;10.88;1.20;;;2.50;99.90;;;;;;5093231;28;20036;-47
2022/01/20 02:02:17;;;;;;;17.75;0.63;;;2.40;99.90;;;;;;5074954;28;20470;-47
2022/01/20 02:04:43;;;;;;;10.93;0.50;;;2.30;99.90;;;;;;5092790;28;20040;-45
2022/01/20 02:20:59;;;;;;;15.10;0.80;;;2.40;99.90;;;;;;5070951;28;20462;-47
2022/01/20 02:23:26;;;;;;;19.70;1.00;;;2.40;99.90;;;;;;5070724;28;20135;-47
2022/01/20 02:25:53;;;;;;;10.57;0.57;;;2.50;99.90;;;;;;5072277;28;20514;-46
2022/01/20 02:28:19;;;;;;;15.88;1.15;;;2.60;99.90;;;;;;5072303;28;20047;-48
2022/01/20 02:30:45;;;;;;;11.13;0.50;;;2.60;99.90;;;;;;5072178;28;20036;-46
2022/01/20 02:33:16;;;;;;;14.43;1.13;;;2.60;99.90;;;;;;5072129;28;20047;-47
2022/01/20 02:35:59;;;;;;;16.33;0.82;;;2.70;99.90;;;;;;5072190;28;20044;-46
2022/01/20 02:46:23;;;;;;;18.42;1.55;;;2.80;99.90;;;;;;5072048;28;20048;-47
2022/01/20 02:48:48;;;;;;;17.52;0.93;;;2.80;99.90;;;;;;5071238;28;20041;-48
2022/01/20 02:51:14;;;;;;;12.68;1.00;;;2.70;99.90;;;;;;5071737;28;20368;-49
2022/01/20 02:53:40;;;;;;;21.40;1.33;;;2.70;99.90;;;;;;5072145;28;20444;-49
2022/01/20 02:56:06;;;;;;;21.80;1.60;;;2.70;99.90;;;;;;5071630;28;20044;-46
2022/01/20 02:58:32;;;;;;;26.77;1.60;;;2.60;99.90;;;;;;5071696;28;20123;-48
2022/01/20 03:00:58;;;;;;;27.02;2.78;;;2.50;99.90;;;;;;5071701;28;20128;-47
2022/01/20 03:03:24;;;;;;;29.52;1.88;;;2.50;99.90;;;;;;5071591;28;20052;-48
2022/01/20 03:05:50;;;;;;;15.98;2.22;;;2.40;99.90;;;;;;5071039;28;20033;-48
2022/01/20 03:08:16;;;;;;;23.17;2.45;;;2.60;99.90;;;;;;5071134;28;20534;-47
2022/01/20 03:10:42;;;;;;;19.63;2.03;;;2.30;99.90;;;;;;5071428;28;20037;-47
2022/01/20 03:13:08;;;;;;;23.95;2.13;;;2.20;99.90;;;;;;5070244;28;20061;-47
2022/01/20 03:15:35;;;;;;;28.83;2.35;;;2.10;99.90;;;;;;5084484;28;20059;-49
2022/01/20 03:18:04;;;;;;;21.48;2.60;;;2.10;99.90;;;;;;5093728;28;20051;-47
2022/01/20 03:20:32;;;;;;;33.03;3.35;;;2.00;99.90;;;;;;5111772;28;20385;-48
2022/01/20 03:22:58;;;;;;;29.95;1.77;;;2.00;99.90;;;;;;5111827;28;20073;-50
2022/01/20 03:25:24;;;;;;;25.70;2.35;;;2.00;99.90;;;;;;5093075;28;20042;-48
2022/01/20 03:27:50;;;;;;;26.77;2.60;;;1.90;99.90;;;;;;5093468;28;20040;-51
2022/01/20 03:30:16;;;;;;;18.02;2.33;;;2.00;99.90;;;;;;5111237;28;20046;-51
2022/01/20 03:32:42;;;;;;;24.10;2.72;;;2.00;99.90;;;;;;5111775;28;20474;-48
2022/01/20 03:35:08;;;;;;;23.88;1.90;;;2.00;99.90;;;;;;5111749;28;20070;-47
2022/01/20 03:37:35;;;;;;;26.83;2.05;;;2.10;99.90;;;;;;5109881;28;20074;-47
2022/01/20 03:40:02;;;;;;;35.78;2.90;;;2.10;99.90;;;;;;5111343;28;20040;-48
2022/01/20 03:42:28;;;;;;;30.33;2.67;;;2.00;99.90;;;;;;5111598;28;20044;-47
2022/01/20 03:44:54;;;;;;;31.67;1.98;;;2.00;99.90;;;;;;5111364;28;20062;-49
2022/01/20 03:47:24;;;;;;;19.60;2.60;;;2.00;99.90;;;;;;5111218;28;20042;-47
2022/01/20 03:50:07;;;;;;;24.83;1.67;;;2.00;99.90;;;;;;5111324;28;20504;-49
2022/01/20 03:52:32;;;;;;;;;;;2.00;99.90;;;;;;5093179;28;20048;-47
2022/01/20 03:54:58;;;;;;;24.95;2.30;;;2.00;99.90;;;;;;5111331;28;19920;-48
2022/01/20 03:57:24;;;;;;;30.25;2.70;;;2.00;99.90;;;;;;5110767;28;20378;-47
2022/01/20 03:59:50;;;;;;;25.35;2.45;;;2.00;99.90;;;;;;5111165;28;20148;-48
2022/01/20 04:02:16;;;;;;;29.75;2.83;;;2.00;99.90;;;;;;5111217;28;20054;-47
2022/01/20 04:04:41;;;;;;;26.98;3.08;;;1.90;99.90;;;;;;5111033;28;20043;-47
2022/01/20 04:07:07;;;;;;;34.17;3.85;;;1.90;99.90;;;;;;5111018;28;20539;-48
2022/01/20 04:09:33;;;;;;;34.20;2.95;;;1.90;99.90;;;;;;5110809;28;20412;-47
2022/01/20 04:11:59;;;;;;;19.55;2.35;;;1.90;99.90;;;;;;5110702;28;20061;-50
2022/01/20 04:14:27;;;;;;;27.65;3.08;;;1.80;99.90;;;;;;5110680;28;20112;-46
2022/01/20 04:19:24;;;;;;;25.92;3.22;;;1.60;99.90;;;;;;5110937;28;20040;-49
2022/01/20 04:21:50;;;;;;;20.30;2.30;;;1.60;99.90;;;;;;5092438;28;20043;-49
2022/01/20 04:24:16;;;;;;;20.63;2.53;;;4.20;99.90;;;;;;5092557;28;20092;-46
2022/01/20 04:26:44;;;;;;;13.32;1.90;;;1.40;99.90;;;;;;5092304;28;20082;-49
2022/01/20 04:29:14;;;;;;;21.00;2.08;;;1.50;99.90;;;;;;5110973;28;20054;-47
2022/01/20 04:31:40;;;;;;;14.70;1.55;;;1.10;99.90;;;;;;5110582;28;20039;-48
2022/01/20 04:34:08;;;;;;;13.95;1.70;;;1.00;99.90;;;;;;5092192;28;20062;-49
2022/01/20 04:36:37;;;;;;;18.42;1.70;;;1.00;99.90;;;;;;5110458;28;20043;-48
2022/01/20 04:39:06;;;;;;;18.17;2.97;;;1.00;99.90;;;;;;5090674;28;20084;-47
2022/01/20 04:41:32;;;;;;;26.35;1.60;;;0.90;99.90;;;;;;5110282;28;20409;-47
2022/01/20 04:43:59;;;;;;;20.65;3.22;;;1.00;99.90;;;;;;5110639;28;20043;-47
2022/01/20 04:46:41;;;;;;;26.63;5.18;;;1.00;99.90;;;;;;5110712;28;20168;-49
2022/01/20 04:57:04;;;;;;;15.43;1.35;;;1.00;99.90;;;;;;5110548;28;20391;-47
2022/01/20 04:57:26;;;;;;;15.30;1.85;;;1.10;99.90;;;;;;5110576;28;20109;-47
2022/01/20 04:59:54;;;;;;;17.98;1.83;;;1.10;99.90;;;;;;5110190;28;20047;-47
2022/01/20 05:02:21;;;;;;;27.70;3.13;;;1.10;99.90;;;;;;5110377;28;20105;-47
2022/01/20 05:04:47;;;;;;;20.38;2.03;;;1.10;99.90;;;;;;5110338;28;20092;-48
2022/01/20 05:07:20;;;;;;;25.20;1.92;;;1.20;99.90;;;;;;5110209;28;20442;-48
2022/01/20 05:09:46;;;;;;;14.95;2.33;;;1.10;99.90;;;;;;5110344;28;20043;-46
2022/01/20 05:12:15;;;;;;;15.02;1.95;;;0.90;99.90;;;;;;5111911;28;20050;-47
2022/01/20 05:14:41;;;;;;;22.10;2.00;;;0.90;99.90;;;;;;5114172;28;20071;-47
2022/01/20 05:17:07;;;;;;;26.70;2.95;;;0.90;99.90;;;;;;5114404;28;20039;-50
2022/01/20 05:19:33;;;;;;;18.30;2.75;;;0.70;99.90;;;;;;5114174;28;20068;-45
2022/01/20 05:21:59;;;;;;;14.98;1.25;;;0.70;99.90;;;;;;5114324;28;20067;-47
2022/01/20 05:24:26;;;;;;;17.38;1.90;;;0.70;99.90;;;;;;5114029;28;20039;-48
2022/01/20 05:26:54;;;;;;;22.33;3.25;;;0.60;99.90;;;;;;5114108;28;20398;-47
2022/01/20 05:29:21;;;;;;;11.98;1.30;;;0.60;99.90;;;;;;5113905;28;20470;-47
2022/01/20 05:31:47;;;;;;;24.45;2.30;;;0.60;99.90;;;;;;5113860;28;20402;-46
2022/01/20 05:34:15;;;;;;;15.40;3.78;;;0.60;99.90;;;;;;5114089;28;20051;-49
2022/01/20 05:36:41;;;;;;;16.33;1.67;;;0.70;99.90;;;;;;5113667;28;20485;-48
2022/01/20 05:39:07;;;;;;;16.35;1.83;;;0.80;99.90;;;;;;5112765;27;20044;-47
2022/01/20 05:41:33;;;;;;;12.32;1.33;;;0.90;99.90;;;;;;5114193;28;20058;-46
2022/01/20 05:43:59;;;;;;;17.80;2.58;;;0.90;99.90;;;;;;5113541;28;20047;-47
2022/01/20 05:46:28;;;;;;;12.10;1.40;;;1.00;99.90;;;;;;5095736;28;20059;-47
2022/01/20 05:48:58;;;;;;;14.43;0.95;;;0.90;99.90;;;;;;5113549;28;20039;-46
2022/01/20 05:51:23;;;;;;;9.38;0.98;;;0.90;99.90;;;;;;5113643;28;20043;-49
2022/01/20 05:53:49;;;;;;;7.38;0.88;;;1.80;99.90;;;;;;5095114;28;20047;-49
2022/01/20 05:56:15;;;;;;;13.77;0.88;;;0.90;99.90;;;;;;5113288;28;20501;-46
2022/01/20 05:58:41;;;;;;;10.73;0.88;;;0.80;99.90;;;;;;5113448;28;20477;-46
2022/01/20 06:01:08;;;;;;;10.93;1.10;;;0.70;99.90;;;;;;5113360;28;20035;-48
2022/01/20 06:03:36;;;;;;;11.32;1.20;;;0.60;99.90;;;;;;5113353;28;20043;-46
2022/01/20 06:06:07;;;;;;;12.05;1.42;;;0.40;99.90;;;;;;5095240;28;20388;-49
2022/01/20 06:08:35;;;;;;;12.07;1.20;;;0.40;99.90;;;;;;5113490;28;20050;-51
2022/01/20 06:11:01;;;;;;;15.95;1.00;;;0.20;99.90;;;;;;5113061;28;20043;-48
2022/01/20 06:13:27;;;;;;;11.38;1.02;;;0.10;99.90;;;;;;5113294;28;20044;-49
2022/01/20 06:15:53;;;;;;;11.32;0.90;;;0.00;99.90;;;;;;5094905;28;20132;-47
2022/01/20 06:18:19;;;;;;;16.48;0.82;;;-0.10;99.90;;;;;;5113195;28;20104;-48
2022/01/20 06:20:46;;;;;;;12.15;1.45;;;-0.10;99.90;;;;;;5113033;28;20031;-47
2022/01/20 06:23:12;;;;;;;9.70;1.27;;;-0.10;99.90;;;;;;5112720;28;20082;-49
2022/01/20 06:25:37;;;;;;;15.40;1.23;;;-0.10;99.90;;;;;;5112775;28;20096;-48
2022/01/20 06:28:04;;;;;;;13.90;1.83;;;-0.10;99.90;;;;;;5112875;28;20044;-48
2022/01/20 06:30:32;;;;;;;12.75;1.60;;;0.00;99.90;;;;;;5113031;28;20051;-51
2022/01/20 06:32:58;;;;;;;19.50;2.28;;;0.00;99.90;;;;;;5112634;28;20035;-47
2022/01/20 06:35:25;;;;;;;17.00;1.70;;;0.00;99.90;;;;;;5112854;28;20657;-48
2022/01/20 06:37:51;;;;;;;21.58;1.98;;;0.20;99.90;;;;;;5111067;28;20047;-48
2022/01/20 06:40:17;;;;;;;20.23;3.00;;;0.30;99.90;;;;;;5112718;28;20097;-51
2022/01/20 06:42:43;;;;;;;16.20;1.85;;;1.20;99.90;;;;;;5094524;28;20038;-52
2022/01/20 06:45:11;;;;;;;17.45;1.77;;;0.50;99.90;;;;;;5112972;28;20155;-48
2022/01/20 06:47:38;;;;;;;10.45;1.58;;;0.60;99.90;;;;;;5112589;28;20118;-48
2022/01/20 06:50:06;;;;;;;17.77;2.20;;;0.70;99.90;;;;;;5112431;28;20366;-47
2022/01/20 06:52:32;;;;;;;17.70;3.20;;;0.80;99.90;;;;;;5112833;28;20117;-48
2022/01/20 06:54:58;;;;;;;20.42;2.80;;;1.60;99.90;;;;;;5094045;28;20044;-48
2022/01/20 06:57:24;;;;;;;14.52;2.10;;;1.00;99.90;;;;;;5112728;28;20469;-49
2022/01/20 06:59:49;;;;;;;18.50;1.85;;;1.10;99.90;;;;;;5112323;28;20074;-48
2022/01/20 07:02:15;;;;;;;15.32;1.40;;;1.20;99.90;;;;;;5112561;28;20088;-49
2022/01/20 07:04:43;;;;;;;17.63;1.60;;;1.20;99.90;;;;;;5112178;28;20466;-47
2022/01/20 07:07:09;;;;;;;27.90;2.40;;;1.10;99.90;;;;;;5112046;28;20500;-50
2022/01/20 07:09:35;;;;;;;19.85;2.80;;;1.00;99.90;;;;;;5112376;28;20035;-46
2022/01/20 07:12:02;;;;;;;20.40;1.33;;;1.00;99.90;;;;;;5104495;27;20393;-49
2022/01/20 07:14:29;;;;;;;10.07;1.48;;;0.80;99.90;;;;;;5101521;28;20085;-50
2022/01/20 07:16:55;;;;;;;10.43;1.65;;;0.70;99.90;;;;;;5101914;28;20071;-51
2022/01/20 07:19:21;;;;;;;14.00;2.00;;;0.60;99.90;;;;;;5100142;28;20442;-49
2022/01/20 07:21:46;;;;;;;8.93;1.00;;;0.40;99.90;;;;;;5101516;28;20102;-49
2022/01/20 07:24:13;;;;;;;14.02;1.08;;;0.30;99.90;;;;;;5096499;28;20075;-49
2022/01/20 07:26:38;;;;;;;13.85;1.88;;;0.30;99.90;;;;;;5098846;28;20035;-50
2022/01/20 07:29:04;;;;;;;14.48;1.73;;;0.30;99.90;;;;;;5030789;28;20059;-48
2022/01/20 07:31:30;;;;;;;19.65;1.73;;;0.30;99.90;;;;;;5081375;28;20379;-51
2022/01/20 07:33:57;;;;;;;15.40;1.52;;;0.30;99.90;;;;;;5084505;28;20044;-52
2022/01/20 07:36:22;;;;;;;15.93;2.15;;;0.20;99.90;;;;;;5087452;28;20039;-50
2022/01/20 07:38:48;;;;;;;15.98;1.23;;;0.30;99.90;;;;;;5078276;28;20500;-49
2022/01/20 07:41:14;;;;;;;18.40;1.45;;;0.30;99.90;;;;;;5088054;28;20093;-49
2022/01/20 07:43:40;;;;;;;17.02;2.35;;;1.50;99.90;;;;;;5087709;28;20047;-49
2022/01/20 07:46:06;;;;;;;12.02;0.98;;;0.90;99.90;;;;;;5087741;28;20052;-51
2022/01/20 07:48:32;;;;;;;17.48;1.88;;;0.50;99.90;;;;;;5085657;28;20438;-50
2022/01/20 07:50:58;;;;;;;15.35;2.00;;;0.50;99.90;;;;;;5087252;28;20591;-49
2022/01/20 07:53:24;;;;;;;17.35;1.90;;;0.50;99.90;;;;;;5087773;28;20052;-47
2022/01/20 07:55:52;;;;;;;20.50;2.47;;;0.50;99.90;;;;;;5088023;28;20076;-46
2022/01/20 07:58:18;;;;;;;15.88;1.33;;;0.40;99.90;;;;;;5069593;28;20048;-49
2022/01/20 08:00:44;;;;;;;15.43;1.30;;;0.30;99.90;;;;;;5087751;28;20047;-52
2022/01/20 08:03:10;;;;;;;17.42;2.33;;;0.30;99.90;;;;;;5087443;28;20390;-48
2022/01/20 08:05:35;;;;;;;12.38;1.10;;;0.30;99.90;;;;;;5087127;28;20511;-50
2022/01/20 08:08:01;;;;;;;15.43;1.45;;;0.30;99.90;;;;;;5087704;28;20050;-50
2022/01/20 08:10:27;;;;;;;11.10;1.60;;;0.50;99.90;;;;;;5087402;28;20078;-47
2022/01/20 08:12:52;;;;;;;12.15;2.22;;;0.80;99.90;;;;;;5087430;28;20074;-51
2022/01/20 08:15:18;;;;;;;6.30;0.47;;;0.70;99.90;;;;;;5086809;28;20540;-51
2022/01/20 08:17:44;;;;;;;9.65;0.45;;;0.90;99.90;;;;;;5087421;28;20048;-55
2022/01/20 08:20:11;;;;;;;8.88;0.77;;;0.90;99.90;;;;;;5085747;28;20051;-55
2022/01/20 08:22:37;;;;;;;10.27;0.43;;;1.00;99.90;;;;;;5087865;28;20047;-55
2022/01/20 08:25:08;;;;;;;15.38;1.77;;;1.00;99.90;;;;;;5087196;28;20691;-56
2022/01/20 08:27:36;;;;;;;7.57;0.50;;;1.00;99.90;;;;;;5085687;28;20090;-56
2022/01/20 08:30:04;;;;;;;10.77;1.00;;;1.00;99.90;;;;;;5066514;28;20130;-56
2022/01/20 08:32:30;;;;;;;8.25;0.68;;;1.00;99.90;;;;;;5086832;28;20482;-56
2022/01/20 08:34:56;;;;;;;13.15;0.75;;;1.00;99.90;;;;;;5086631;28;20048;-54
2022/01/20 08:37:21;;;;;;;13.73;1.35;;;0.90;99.90;;;;;;5088482;28;20068;-54
2022/01/20 08:39:47;;;;;;;12.13;1.02;;;0.90;99.90;;;;;;5090225;28;20394;-54
2022/01/20 08:42:13;;;;;;;17.40;0.80;;;0.90;99.90;;;;;;5090220;28;20043;-53
2022/01/20 08:44:39;;;;;;;12.45;1.13;;;1.90;99.90;;;;;;5079500;28;20044;-56
2022/01/20 08:47:15;;;;;;;13.35;1.75;;;1.20;99.90;;;;;;5070447;28;20071;-54
2022/01/20 08:49:41;;;;;;;13.35;1.70;;;0.60;99.90;;;;;;5091824;28;20097;-58
2022/01/20 08:52:07;;;;;;;14.05;1.73;;;0.70;99.90;;;;;;5059237;28;20817;-60
2022/01/20 08:54:33;;;;;;;23.75;1.48;;;0.70;99.90;;;;;;5079279;28;20040;-53
2022/01/20 08:56:59;;;;;;;19.33;1.75;;;0.70;99.90;;;;;;5079022;28;20042;-53
2022/01/20 08:59:26;;;;;;;16.65;1.70;;;0.70;99.90;;;;;;5077046;28;20462;-53
2022/01/20 09:01:53;;;;;;;16.90;1.73;;;0.70;99.90;;;;;;5079512;28;20079;-58
2022/01/20 09:04:18;;;;;;;26.80;3.55;;;0.70;99.90;;;;;;5079703;28;20048;-45
2022/01/20 09:06:44;;;;;;;14.90;1.52;;;0.80;99.90;;;;;;5076299;28;20043;-51
2022/01/20 09:09:10;;;;;;;18.10;2.85;;;0.40;99.90;;;;;;5074390;28;20060;-48
2022/01/20 09:11:39;;;;;;;16.92;3.33;;;0.80;99.90;;;;;;5079524;28;20045;-62
2022/01/20 09:16:50;;;;;;;9.65;0.50;;;3.80;99.90;;;;;;5080814;28;20113;-51
2022/01/20 09:19:17;;;;;;;6.53;0.60;;;1.40;99.90;;;;;;5080477;28;20041;-51
2022/01/20 09:21:44;;;;;;;3.72;0.70;;;1.60;99.90;;;;;;5080570;28;20044;-49
2022/01/20 09:24:10;;;;;;;7.53;0.73;;;1.60;99.90;;;;;;5045462;28;20047;-51
2022/01/20 09:26:35;;;;;;;7.35;0.40;;;2.80;99.90;;;;;;5092900;28;20040;-52
2022/01/20 09:29:02;;;;;;;7.28;0.93;;;1.50;99.90;;;;;;5082625;28;20048;-52
2022/01/20 09:31:30;;;;;;;5.43;0.40;;;1.40;99.90;;;;;;5093579;28;20392;-51
2022/01/20 09:33:56;;;;;;;12.88;1.27;;;1.40;99.90;;;;;;5093420;28;20114;-53
2022/01/20 09:36:23;;;;;;;22.10;2.92;;;1.50;99.90;;;;;;5083424;28;20123;-53
2022/01/20 09:38:49;;;;;;;9.50;0.73;;;1.50;99.90;;;;;;5083412;28;20051;-53
2022/01/20 09:41:15;;;;;;;9.55;0.60;;;1.60;99.90;;;;;;5077791;28;20747;-51
2022/01/20 09:43:41;;;;;;;8.02;1.15;;;1.90;99.90;;;;;;5083817;28;20052;-53
2022/01/20 09:46:07;;;;;;;15.52;1.15;;;2.20;99.90;;;;;;5079314;28;20536;-54
2022/01/20 09:48:33;;;;;;;11.32;1.10;;;2.30;99.90;;;;;;5068035;28;20032;-53
2022/01/20 09:51:00;;;;;;;10.15;1.00;;;2.30;99.90;;;;;;5080897;28;20699;-53
2022/01/20 09:53:27;;;;;;;6.80;0.60;;;2.20;99.90;;;;;;5083420;28;20146;-54
2022/01/20 09:55:54;;;;;;;8.30;0.65;;;2.20;99.90;;;;;;5079970;28;20451;-54
2022/01/20 09:58:20;;;;;;;9.27;0.85;;;2.20;99.90;;;;;;5077864;28;20084;-54
2022/01/20 10:00:48;;;;;;;9.00;0.93;;;2.20;99.90;;;;;;5076030;28;20072;-53
2022/01/20 10:03:16;;;;;;;13.55;1.35;;;2.30;99.90;;;;;;5083193;28;20409;-53
2022/01/20 10:05:50;;;;;;;12.75;1.17;;;2.40;99.90;;;;;;5080484;28;20040;-53
2022/01/20 10:08:27;;;;;;;20.83;3.40;;;3.50;99.90;;;;;;5083378;28;20044;-52
2022/01/20 10:11:10;;;;;;;9.18;0.95;;;2.50;99.90;;;;;;5066417;28;20051;-54
2022/01/20 10:13:40;;;;;;;;;;;2.60;99.90;;;;;;5081097;28;20831;-53
2022/01/20 10:16:12;;;;;;;15.02;1.25;;;2.80;99.90;;;;;;5086173;28;20492;-53
2022/01/20 10:18:57;;;;;;;11.23;1.20;;;5.10;99.90;;;;;;5078504;28;20123;-53
2022/01/20 10:21:34;;;;;;;12.65;0.88;;;3.50;99.90;;;;;;5083606;28;20042;-53
2022/01/20 10:24:19;;;;;;;12.70;1.70;;;3.50;99.90;;;;;;5080241;28;20040;-55
2022/01/20 10:26:50;;;;;;;9.50;1.77;;;3.30;99.90;;;;;;5086758;28;20044;-55
2022/01/20 10:29:16;;;;;;;11.30;1.80;;;3.20;99.90;;;;;;5085926;28;20064;-54
2022/01/20 10:31:45;;;;;;;18.00;2.33;;;3.20;99.90;;;;;;5077808;28;20360;-55
2022/01/20 10:34:35;;;;;;;18.95;2.17;;;3.40;99.90;;;;;;5078751;28;20032;-54
2022/01/20 10:37:09;;;;;;;13.98;1.50;;;3.60;99.90;;;;;;5059270;28;20473;-54
2022/01/20 10:39:42;;;;;;;595.47;85.95;;;3.60;99.90;;;;;;5081121;28;20036;-54
2022/01/20 10:42:10;;;;;;;112.55;14.25;;;3.60;99.90;;;;;;5076468;28;20166;-54
2022/01/20 10:44:45;;;;;;;617.75;87.78;;;3.70;99.90;;;;;;5068495;28;20413;-54
2022/01/20 10:47:17;;;;;;;96.05;12.95;;;3.80;99.90;;;;;;5080980;28;20101;-54
2022/01/20 10:49:44;;;;;;;778.05;117.22;;;3.70;99.90;;;;;;5084671;28;20497;-54
2022/01/20 10:52:12;;;;;;;378.02;53.22;;;3.40;99.90;;;;;;5083014;28;20540;-54
2022/01/20 10:54:44;;;;;;;23.85;3.00;;;3.60;99.90;;;;;;5083072;28;20379;-55
2022/01/20 10:57:11;;;;;;;71.38;9.02;;;3.60;99.90;;;;;;5080622;28;20040;-54
2022/01/20 11:00:08;;;;;;;65.63;8.65;;;3.60;99.90;;;;;;5085726;28;20493;-54
2022/01/20 11:02:34;;;;;;;28.80;2.80;;;3.70;99.90;;;;;;5069851;28;20565;-55
2022/01/20 11:05:00;;;;;;;17.05;3.10;;;3.80;99.90;;;;;;5083795;28;20143;-53
2022/01/20 11:07:28;;;;;;;14.40;2.38;;;4.00;99.90;;;;;;5071399;28;20047;-54
2022/01/20 11:10:02;;;;;;;16.95;1.85;;;4.10;99.90;;;;;;5070831;28;20051;-54
2022/01/20 11:12:28;;;;;;;14.43;1.65;;;4.10;99.90;;;;;;5076733;28;20040;-56
2022/01/20 11:14:56;;;;;;;16.88;3.00;;;4.30;99.90;;;;;;5075944;28;20464;-45
2022/01/20 11:17:24;;;;;;;20.95;1.65;;;4.30;99.90;;;;;;5074085;28;20055;-53
2022/01/20 11:19:51;;;;;;;33.13;2.47;;;4.90;99.90;;;;;;5057825;28;20045;-57
2022/01/20 11:22:20;;;;;;;13.02;1.95;;;4.00;99.90;;;;;;5081036;28;20110;-59
2022/01/20 11:25:00;;;;;;;21.75;2.08;;;3.80;99.90;;;;;;5056942;28;20144;-56
2022/01/20 11:27:37;;;;;;;10.65;1.42;;;5.70;99.90;;;;;;5078315;28;20744;-60
2022/01/20 11:30:21;;;;;;;14.48;1.27;;;3.60;99.90;;;;;;5075320;28;20448;-59
2022/01/20 11:33:08;;;;;;;16.35;1.77;;;3.40;99.90;;;;;;5078700;28;20380;-54
2022/01/20 11:35:54;;;;;;;14.32;1.48;;;3.30;99.90;;;;;;5059694;28;20131;-51
2022/01/20 11:38:23;;;;;;;21.75;1.50;;;3.20;99.90;;;;;;5072312;28;20040;-64
2022/01/20 11:40:59;;;;;;;18.90;2.08;;;3.20;99.90;;;;;;5072276;28;20040;-63
2022/01/20 11:43:37;;;;;;;15.80;1.60;;;4.60;99.90;;;;;;5071392;28;20371;-65
2022/01/20 11:46:23;;;;;;;11.40;1.20;;;3.10;99.90;;;;;;5074893;28;20124;-62
2022/01/20 11:48:55;;;;;;;17.45;2.30;;;3.00;99.90;;;;;;5076381;28;20059;-59
2022/01/20 11:51:23;;;;;;;20.17;1.58;;;3.00;99.90;;;;;;5072211;28;20107;-53
2022/01/20 11:54:04;;;;;;;11.13;1.52;;;3.00;99.90;;;;;;5050697;28;20093;-54
2022/01/20 11:56:41;;;;;;;10.05;1.88;;;3.10;99.90;;;;;;5072589;28;20103;-60
2022/01/20 11:59:16;;;;;;;13.18;2.28;;;3.10;99.90;;;;;;5070518;28;20052;-57
2022/01/20 12:01:44;;;;;;;11.52;1.38;;;3.10;99.90;;;;;;5074599;28;20058;-51
2022/01/20 12:04:10;;;;;;;21.90;2.05;;;3.30;99.90;;;;;;5073740;28;20483;-50
2022/01/20 12:06:43;;;;;;;13.63;2.10;;;3.50;99.90;;;;;;5070365;28;20123;-49
2022/01/20 12:09:09;;;;;;;14.57;1.70;;;3.60;99.90;;;;;;5074552;28;20048;-55
2022/01/20 12:11:45;;;;;;;7.95;1.00;;;5.30;99.90;;;;;;5075752;28;20036;-50
2022/01/20 12:14:11;;;;;;;12.13;1.75;;;3.70;99.90;;;;;;5071906;28;20047;-51
2022/01/20 12:16:38;;;;;;;10.50;1.23;;;3.80;99.90;;;;;;5071891;28;20566;-48
2022/01/20 12:19:08;;;;;;;9.75;1.10;;;3.80;99.90;;;;;;5072384;28;20123;-48
2022/01/20 12:21:36;;;;;;;9.60;0.88;;;5.10;99.90;;;;;;5073204;28;20834;-54
2022/01/20 12:24:02;;;;;;;14.63;1.50;;;5.40;99.90;;;;;;5074334;28;20040;-46
2022/01/20 12:26:33;;;;;;;13.10;1.60;;;4.20;99.90;;;;;;5068089;28;20024;-50
2022/01/20 12:29:02;;;;;;;17.07;1.17;;;4.30;99.90;;;;;;5074108;28;20091;-50
2022/01/20 12:31:28;;;;;;;19.48;2.67;;;4.20;99.90;;;;;;5074219;28;20274;-47
2022/01/20 12:33:54;;;;;;;14.25;1.83;;;4.10;99.90;;;;;;5075899;28;20032;-48
2022/01/20 12:36:20;;;;;;;10.50;1.58;;;4.00;99.90;;;;;;5074771;28;20028;-53
2022/01/20 12:38:48;;;;;;;12.85;2.10;;;3.90;99.90;;;;;;5073975;28;20041;-48
2022/01/20 12:41:17;;;;;;;11.30;1.63;;;3.70;99.90;;;;;;5075245;28;20040;-50
2022/01/20 12:43:48;;;;;;;14.68;1.10;;;3.60;99.90;;;;;;5077690;28;20072;-54
2022/01/20 12:46:20;;;;;;;14.10;1.65;;;3.50;99.90;;;;;;5072691;28;20114;-49
2022/01/20 12:49:04;;;;;;;14.30;1.00;;;3.40;99.90;;;;;;5061825;28;20036;-55
2022/01/20 12:51:49;;;;;;;16.42;1.92;;;3.40;99.90;;;;;;5075574;28;20536;-56
2022/01/20 12:54:26;;;;;;;13.10;1.17;;;3.30;99.90;;;;;;5074072;28;20047;-50
2022/01/20 12:57:12;;;;;;;13.70;1.67;;;3.20;99.90;;;;;;5074069;28;20133;-52
2022/01/20 12:59:41;;;;;;;14.10;1.17;;;3.10;99.90;;;;;;5054324;28;20505;-59
2022/01/20 13:02:12;;;;;;;15.73;1.40;;;2.80;99.90;;;;;;5040186;28;20075;-58
2022/01/20 13:04:39;;;;;;;9.73;1.10;;;3.00;99.90;;;;;;5075252;28;20491;-55
2022/01/20 13:07:07;;;;;;;11.35;1.83;;;3.00;99.90;;;;;;5072751;28;20037;-61
2022/01/20 13:09:38;;;;;;;8.57;1.20;;;3.00;99.90;;;;;;5075127;28;20549;-61
2022/01/20 13:12:05;;;;;;;11.13;0.68;;;3.00;99.90;;;;;;5078212;28;20036;-59
2022/01/20 13:14:49;;;;;;;10.68;0.90;;;2.90;99.90;;;;;;5072357;28;20033;-59
2022/01/20 13:17:24;;;;;;;15.95;1.83;;;2.90;99.90;;;;;;5071347;28;20496;-59
2022/01/20 13:19:54;;;;;;;16.23;1.50;;;2.80;99.90;;;;;;5075625;28;20114;-64
2022/01/20 13:22:43;;;;;;;13.38;1.80;;;2.80;99.90;;;;;;5073952;28;20032;-58
2022/01/20 13:25:12;;;;;;;13.73;1.67;;;4.00;99.90;;;;;;5075503;28;20049;-59
2022/01/20 13:27:49;;;;;;;14.48;1.38;;;3.00;99.90;;;;;;5073555;28;20071;-58
2022/01/20 13:30:36;;;;;;;18.48;2.13;;;2.90;99.90;;;;;;5074081;28;20038;-56
2022/01/20 13:33:13;;;;;;;14.93;2.25;;;3.40;99.90;;;;;;5073710;28;20796;-56
2022/01/20 13:35:42;;;;;;;12.18;1.20;;;4.10;99.90;;;;;;5074825;28;20432;-58
2022/01/20 13:38:08;;;;;;;9.40;0.60;;;3.50;99.90;;;;;;5061009;28;20077;-61
2022/01/20 13:40:44;;;;;;;6.78;1.00;;;4.00;99.90;;;;;;5065210;28;20473;-59
2022/01/20 13:45:46;;;;;;;14.55;1.55;;;4.00;99.90;;;;;;5078558;28;20130;-54
2022/01/20 13:48:14;;;;;;;8.75;1.00;;;2.90;99.90;;;;;;5078774;28;20044;-55
2022/01/20 13:50:41;;;;;;;11.55;1.10;;;2.80;99.90;;;;;;5078689;28;20050;-60
2022/01/20 13:53:22;;;;;;;8.18;1.20;;;3.70;99.90;;;;;;5079457;28;20040;-60
2022/01/20 13:55:48;;;;;;;11.90;1.17;;;2.60;99.90;;;;;;5078560;28;20107;-55
2022/01/20 13:58:34;;;;;;;3.90;0.40;;;2.60;99.90;;;;;;5064575;28;20059;-58
2022/01/20 14:01:12;;;;;;;4.15;0.70;;;2.60;99.90;;;;;;5077584;28;20426;-56
2022/01/20 14:03:40;;;;;;;9.73;1.55;;;2.50;99.90;;;;;;5077566;28;20045;-55
2022/01/20 14:06:06;;;;;;;7.70;0.75;;;2.50;99.90;;;;;;5076921;28;20066;-56
2022/01/20 14:08:36;;;;;;;8.40;0.63;;;2.40;99.90;;;;;;5073243;28;20420;-58